Time;durP1;ratioP1;P1;durP2;ratioP2;P2;SDS_P1;SDS_P2;PMS_P1;PMS_P2;Temp;Humidity;BMP_temperature;BMP_pressure;BME280_temperature;BME280_humidity;BME280_pressure;Samples;Min_cycle;Max_cycle;Signal;HPM_P1;HPM_P2
2023/05/29 00:01:32;;;;;;;9.95;2.83;;;;;;;14.84;66.91;101822.75;5019316;28;20033;-68
2023/05/29 00:03:58;;;;;;;8.30;2.97;;;;;;;14.82;66.50;101816.88;5004505;28;20061;-68
2023/05/29 00:06:24;;;;;;;6.18;2.63;;;;;;;14.83;66.58;101820.31;5023289;28;20033;-68
2023/05/29 00:08:50;;;;;;;8.90;2.90;;;;;;;14.76;66.47;101814.91;5034928;28;20523;-68
2023/05/29 00:11:15;;;;;;;7.72;2.50;;;;;;;14.70;66.52;101820.75;5037856;28;20036;-68
2023/05/29 00:13:41;;;;;;;9.77;3.00;;;;;;;14.63;67.08;101827.56;5035285;28;20404;-68
2023/05/29 00:16:09;;;;;;;7.10;2.80;;;;;;;14.59;66.70;101820.06;5017104;28;20277;-68
2023/05/29 00:18:35;;;;;;;5.50;2.47;;;;;;;14.57;66.41;101822.00;5022270;28;20056;-69
2023/05/29 00:21:01;;;;;;;8.00;3.00;;;;;;;14.53;66.47;101827.69;5041584;28;20056;-68
2023/05/29 00:23:27;;;;;;;5.03;2.45;;;;;;;14.50;67.00;101831.41;5022365;28;20044;-68
2023/05/29 00:25:52;;;;;;;7.85;3.33;;;;;;;14.40;66.88;101828.91;5003371;28;20041;-68
2023/05/29 00:28:17;;;;;;;5.68;2.80;;;;;;;14.39;66.85;101845.56;5037140;28;20059;-68
2023/05/29 00:30:43;;;;;;;6.97;3.05;;;;;;;14.34;66.90;101833.97;5015825;28;20033;-68
2023/05/29 00:33:08;;;;;;;12.85;2.75;;;;;;;14.30;66.86;101837.84;5023888;28;20507;-68
2023/05/29 00:35:34;;;;;;;8.90;2.92;;;;;;;14.29;67.17;101838.81;5014960;28;20033;-68
2023/05/29 00:37:59;;;;;;;6.70;2.45;;;;;;;14.25;67.44;101835.69;5020930;28;20032;-68
2023/05/29 00:40:25;;;;;;;7.57;2.47;;;;;;;14.26;67.52;101842.56;5029025;28;20044;-68
2023/05/29 00:42:51;;;;;;;7.70;2.67;;;;;;;14.12;67.57;101846.53;5018730;28;20043;-68
2023/05/29 00:45:16;;;;;;;6.00;2.60;;;;;;;14.08;67.69;101847.00;5022064;28;20033;-68
2023/05/29 00:47:42;;;;;;;6.80;2.45;;;;;;;14.11;67.71;101850.13;5023071;28;20036;-68
2023/05/29 00:50:13;;;;;;;11.73;2.72;;;;;;;14.09;68.00;101853.84;5002892;28;20056;-68
2023/05/29 00:52:40;;;;;;;5.38;2.65;;;;;;;13.99;68.45;101860.00;5035750;28;20025;-68
2023/05/29 00:55:06;;;;;;;10.95;2.92;;;;;;;14.04;68.94;101862.16;5017919;28;20045;-68
2023/05/29 00:57:35;;;;;;;8.07;3.65;;;;;;;13.90;69.38;101860.06;5019461;28;20055;-68
2023/05/29 01:00:05;;;;;;;5.72;2.63;;;;;;;13.87;70.09;101865.63;5034005;28;20036;-68
2023/05/29 01:02:31;;;;;;;5.50;2.78;;;;;;;13.82;71.03;101861.69;5016542;28;20056;-69
2023/05/29 01:04:57;;;;;;;6.50;2.92;;;;;;;13.73;71.60;101870.41;5005327;28;20079;-68
2023/05/29 01:07:22;;;;;;;7.43;3.25;;;;;;;13.79;72.14;101866.38;5019949;28;20115;-68
2023/05/29 01:09:48;;;;;;;9.02;3.63;;;;;;;13.70;72.79;101865.47;5005753;28;20511;-68
2023/05/29 01:12:26;;;;;;;7.85;3.28;;;;;;;13.59;73.61;101869.13;5021559;28;20437;-68
2023/05/29 01:15:07;;;;;;;8.90;3.95;;;;;;;13.42;74.94;101868.16;5017475;28;20104;-68
2023/05/29 01:17:55;;;;;;;8.82;3.92;;;;;;;13.29;75.91;101867.69;5025819;28;20033;-68
2023/05/29 01:20:43;;;;;;;7.20;3.97;;;;;;;13.25;76.30;101868.94;5023419;28;20609;-68
2023/05/29 01:23:37;;;;;;;7.57;3.47;;;;;;;13.24;76.71;101873.34;5039862;28;20112;-68
2023/05/29 01:26:32;;;;;;;;;;;;;;;13.18;77.36;101873.09;5024357;28;20028;-68
2023/05/29 01:29:01;;;;;;;9.70;3.78;;;;;;;13.11;78.08;101870.28;4986866;28;19925;-68
2023/05/29 01:31:28;;;;;;;9.75;3.70;;;;;;;13.12;78.19;101877.09;5005192;28;20043;-68
2023/05/29 01:33:55;;;;;;;8.13;3.30;;;;;;;13.07;79.11;101881.13;5039121;28;20129;-68
2023/05/29 01:36:22;;;;;;;9.25;3.30;;;;;;;13.09;79.42;101881.78;5018816;28;20024;-68
2023/05/29 01:38:50;;;;;;;9.02;3.72;;;;;;;12.91;80.29;101882.56;5022460;28;20394;-69
2023/05/29 01:41:16;;;;;;;16.40;4.40;;;;;;;12.81;81.19;101882.63;5021126;28;20029;-68
2023/05/29 01:43:44;;;;;;;9.00;4.07;;;;;;;12.75;81.81;101888.41;5021506;28;20032;-68
2023/05/29 01:46:12;;;;;;;10.63;3.92;;;;;;;12.73;82.00;101895.53;5033821;28;20033;-68
2023/05/29 01:48:37;;;;;;;9.23;3.67;;;;;;;12.69;82.28;101904.56;5004007;28;20076;-68
2023/05/29 01:51:04;;;;;;;11.48;3.75;;;;;;;12.59;83.21;101907.22;5030608;23;20037;-73
2023/05/29 01:53:29;;;;;;;9.75;4.18;;;;;;;12.53;83.59;101918.22;5014182;28;20099;-73
2023/05/29 01:55:55;;;;;;;7.68;3.22;;;;;;;12.52;82.12;101919.16;4996829;28;20028;-73
2023/05/29 01:58:22;;;;;;;8.43;3.50;;;;;;;12.46;82.23;101920.53;5017395;28;20032;-73
2023/05/29 02:00:48;;;;;;;12.25;3.42;;;;;;;12.49;81.67;101919.47;5016445;28;20668;-73
2023/05/29 02:03:14;;;;;;;7.97;2.92;;;;;;;12.55;80.17;101921.47;5021716;28;20053;-72
2023/05/29 02:05:39;;;;;;;8.35;2.95;;;;;;;12.34;80.00;101923.44;5011477;28;20060;-73
2023/05/29 02:08:05;;;;;;;12.98;3.42;;;;;;;12.30;79.33;101919.47;4984973;28;20041;-73
2023/05/29 02:10:31;;;;;;;10.85;2.90;;;;;;;12.20;79.52;101927.31;5005044;28;20033;-73
2023/05/29 02:12:57;;;;;;;14.15;3.58;;;;;;;12.07;79.71;101923.22;5002880;28;20434;-72
2023/05/29 02:15:23;;;;;;;16.83;3.28;;;;;;;12.16;79.01;101918.16;5004248;28;20220;-73
2023/05/29 02:17:50;;;;;;;17.48;3.35;;;;;;;12.03;78.95;101926.22;4982655;28;20037;-74
2023/05/29 02:20:15;;;;;;;11.90;2.67;;;;;;;12.03;78.91;101926.22;5002635;28;20480;-73
2023/05/29 02:22:41;;;;;;;8.93;2.72;;;;;;;12.08;78.71;101921.44;5004666;28;20255;-72
2023/05/29 02:25:08;;;;;;;13.70;2.92;;;;;;;12.04;77.83;101922.69;5003726;28;20500;-72
2023/05/29 02:27:34;;;;;;;17.30;3.47;;;;;;;11.96;78.16;101927.72;5001563;28;20037;-72
2023/05/29 02:29:59;;;;;;;16.48;3.13;;;;;;;12.04;77.57;101926.09;4989922;28;20041;-73
2023/05/29 02:32:27;;;;;;;9.52;3.33;;;;;;;11.98;77.77;101931.00;5006417;28;20045;-72
2023/05/29 02:34:53;;;;;;;17.80;3.58;;;;;;;11.87;78.33;101935.38;5020280;28;20049;-73
2023/05/29 02:37:19;;;;;;;10.70;2.65;;;;;;;11.79;78.91;101929.19;5008754;28;20446;-72
2023/05/29 02:39:44;;;;;;;13.27;3.83;;;;;;;11.79;78.81;101935.25;5004342;28;20033;-72
2023/05/29 02:42:10;;;;;;;9.43;2.20;;;;;;;11.78;79.25;101932.78;5001843;28;20049;-72
2023/05/29 02:44:35;;;;;;;16.45;2.72;;;;;;;11.81;79.08;101935.94;5000575;28;20049;-72
2023/05/29 02:47:01;;;;;;;15.65;2.70;;;;;;;11.75;79.36;101933.84;5002475;28;20427;-72
2023/05/29 02:49:26;;;;;;;12.73;2.60;;;;;;;11.72;79.22;101930.72;5003048;28;20041;-73
2023/05/29 02:51:56;;;;;;;11.23;3.17;;;;;;;11.68;79.45;101940.56;4985156;28;20034;-72
2023/05/29 02:54:23;;;;;;;9.07;3.00;;;;;;;11.59;79.47;101939.59;5005356;28;20045;-73
2023/05/29 02:56:48;;;;;;;17.17;3.10;;;;;;;11.53;79.70;101939.28;5009521;28;20140;-72
2023/05/29 02:59:13;;;;;;;11.75;2.72;;;;;;;11.55;79.17;101932.22;5021469;28;20052;-73
2023/05/29 03:01:39;;;;;;;9.55;2.55;;;;;;;11.62;79.67;101938.50;5008725;28;20491;-73
2023/05/29 03:04:06;;;;;;;19.85;3.75;;;;;;;11.61;78.91;101940.28;5021277;28;20030;-73
2023/05/29 03:06:32;;;;;;;13.35;2.58;;;;;;;11.55;78.66;101940.00;5006181;28;20034;-73
2023/05/29 03:08:59;;;;;;;14.30;2.72;;;;;;;11.57;78.20;101951.91;5003724;28;20041;-73
2023/05/29 03:11:25;;;;;;;13.82;2.72;;;;;;;11.52;78.38;101948.06;5007771;28;20029;-73
2023/05/29 03:13:51;;;;;;;16.02;2.60;;;;;;;11.42;78.63;101948.03;5004750;28;20099;-72
2023/05/29 03:16:17;;;;;;;9.38;3.20;;;;;;;11.36;78.88;101944.19;5017074;28;20033;-73
2023/05/29 03:18:44;;;;;;;14.00;3.20;;;;;;;11.38;79.07;101951.88;4988754;28;20041;-73
2023/05/29 03:21:10;;;;;;;9.25;2.53;;;;;;;11.37;78.88;101948.44;5004935;28;20322;-72
2023/05/29 03:23:36;;;;;;;12.05;3.17;;;;;;;11.25;78.54;101950.31;5004141;28;20124;-73
2023/05/29 03:26:03;;;;;;;14.43;3.17;;;;;;;11.33;78.18;101949.66;4985634;28;20044;-72
2023/05/29 03:28:33;;;;;;;12.95;2.97;;;;;;;11.26;78.53;101951.13;5003130;28;20495;-73
2023/05/29 03:31:01;;;;;;;10.70;2.33;;;;;;;11.24;78.69;101953.84;4992619;28;20018;-73
2023/05/29 03:33:27;;;;;;;14.45;4.13;;;;;;;11.32;78.47;101944.59;5019387;28;20068;-73
2023/05/29 03:36:18;;;;;;;8.98;2.67;;;;;;;11.30;78.35;101947.31;4994784;28;20475;-73
2023/05/29 03:38:44;;;;;;;12.15;2.90;;;;;;;11.25;78.50;101952.09;4991018;28;20357;-73
2023/05/29 03:41:10;;;;;;;11.98;2.75;;;;;;;11.30;78.32;101952.50;5001966;28;20022;-73
2023/05/29 03:43:36;;;;;;;10.52;2.72;;;;;;;11.18;78.70;101944.00;5005978;28;20053;-73
2023/05/29 03:46:02;;;;;;;17.35;3.65;;;;;;;11.17;79.06;101946.72;5000463;28;20580;-73
2023/05/29 03:48:29;;;;;;;13.77;3.13;;;;;;;11.24;78.77;101953.03;4990884;28;20147;-73
2023/05/29 03:50:55;;;;;;;21.75;3.95;;;;;;;11.21;78.79;101951.53;5004979;28;20025;-73
2023/05/29 03:53:26;;;;;;;15.40;3.30;;;;;;;11.16;79.05;101955.47;5018303;28;20073;-73
2023/05/29 03:55:52;;;;;;;19.38;3.10;;;;;;;11.14;79.48;101955.59;4990744;28;20494;-73
2023/05/29 03:58:18;;;;;;;11.95;3.10;;;;;;;11.16;79.52;101961.50;4999103;28;20053;-73
2023/05/29 04:00:43;;;;;;;20.90;3.33;;;;;;;11.07;79.94;101957.91;5003547;28;20312;-73
2023/05/29 04:03:11;;;;;;;14.73;2.53;;;;;;;11.08;79.44;101963.94;5000717;28;20049;-73
2023/05/29 04:05:36;;;;;;;15.38;2.95;;;;;;;11.10;79.02;101964.63;5002015;28;20510;-73
2023/05/29 04:08:04;;;;;;;18.08;3.33;;;;;;;10.96;80.34;101970.97;5004587;28;20041;-73
2023/05/29 04:10:33;;;;;;;15.95;2.95;;;;;;;10.96;80.41;101976.16;5001606;28;20044;-73
2023/05/29 04:13:02;;;;;;;11.20;3.00;;;;;;;10.99;80.74;101982.88;5003509;28;20034;-73
2023/05/29 04:15:28;;;;;;;13.55;2.80;;;;;;;10.95;80.67;101979.72;4986782;28;20529;-73
2023/05/29 04:17:54;;;;;;;18.05;2.65;;;;;;;10.88;81.62;101981.19;5006478;28;20041;-73
2023/05/29 04:20:20;;;;;;;13.63;2.72;;;;;;;10.92;81.38;101987.75;4999793;28;20719;-73
2023/05/29 04:22:46;;;;;;;15.55;3.17;;;;;;;10.87;81.64;101984.75;5004382;28;20033;-73
2023/05/29 04:25:12;;;;;;;19.75;3.15;;;;;;;10.86;81.97;101988.28;4991926;28;20065;-73
2023/05/29 04:27:38;;;;;;;19.45;4.75;;;;;;;10.87;82.09;101979.56;5005550;28;20022;-73
2023/05/29 04:30:06;;;;;;;20.05;4.03;;;;;;;10.89;81.82;101988.84;5002973;28;20061;-73
2023/05/29 04:32:36;;;;;;;12.55;3.05;;;;;;;10.84;82.23;101995.38;4985694;28;20125;-73
2023/05/29 04:35:02;;;;;;;15.95;3.00;;;;;;;10.83;82.67;101991.97;5007543;28;20211;-73
2023/05/29 04:37:29;;;;;;;18.13;2.97;;;;;;;10.83;82.21;101997.16;5019823;28;20076;-73
2023/05/29 04:39:57;;;;;;;16.38;3.17;;;;;;;10.89;82.65;101994.03;5000746;28;20307;-73
2023/05/29 04:42:25;;;;;;;14.98;2.72;;;;;;;10.88;82.36;101991.56;4985827;28;20033;-73
2023/05/29 04:44:54;;;;;;;13.00;2.75;;;;;;;10.98;81.81;101989.00;5017585;28;20415;-73
2023/05/29 04:47:21;;;;;;;16.92;3.55;;;;;;;11.01;82.23;101994.75;4997376;28;20035;-72
2023/05/29 04:49:48;;;;;;;21.13;3.13;;;;;;;11.04;82.38;101991.09;4984980;28;20129;-73
2023/05/29 04:52:15;;;;;;;14.57;2.92;;;;;;;11.10;82.11;102000.97;5022929;28;20047;-73
2023/05/29 04:54:41;;;;;;;9.65;2.30;;;;;;;11.11;82.08;102002.59;5001311;28;20062;-73
2023/05/29 04:57:06;;;;;;;14.90;3.80;;;;;;;11.06;82.29;102008.19;5003549;28;20389;-73
2023/05/29 04:59:34;;;;;;;23.08;3.70;;;;;;;11.20;81.13;102007.00;4992440;28;20026;-72
2023/05/29 05:02:00;;;;;;;11.75;2.83;;;;;;;11.18;81.56;102010.69;5005211;28;20514;-73
2023/05/29 05:04:26;;;;;;;16.15;3.38;;;;;;;11.24;81.73;102012.75;5002832;28;20045;-73
2023/05/29 05:06:52;;;;;;;15.88;3.17;;;;;;;11.24;81.17;102018.75;4989441;28;20051;-72
2023/05/29 05:09:17;;;;;;;16.08;3.20;;;;;;;11.22;81.47;102015.47;4997829;28;20050;-73
2023/05/29 05:11:43;;;;;;;16.73;3.15;;;;;;;11.36;81.27;102023.88;5003661;28;20064;-73
2023/05/29 05:14:09;;;;;;;12.00;3.25;;;;;;;11.36;81.25;102029.91;4997425;28;20184;-73
2023/05/29 05:16:35;;;;;;;21.40;4.50;;;;;;;11.36;81.63;102016.91;5002991;28;20081;-73
2023/05/29 05:19:02;;;;;;;14.65;2.75;;;;;;;11.44;81.02;102022.25;5006239;28;20099;-73
2023/05/29 05:21:31;;;;;;;14.35;3.30;;;;;;;11.44;80.78;102024.84;5002220;28;20045;-73
2023/05/29 05:23:57;;;;;;;19.00;3.47;;;;;;;11.59;80.77;102027.09;5002078;28;20624;-73
2023/05/29 05:26:23;;;;;;;13.82;3.53;;;;;;;11.63;79.83;102016.28;4988324;28;20037;-73
2023/05/29 05:28:49;;;;;;;13.68;3.22;;;;;;;11.79;79.59;102022.75;4999670;28;20123;-73
2023/05/29 05:31:15;;;;;;;20.02;4.32;;;;;;;11.71;80.36;102033.00;5003526;28;20032;-73
2023/05/29 05:33:40;;;;;;;22.83;3.72;;;;;;;11.78;78.83;102026.31;4986322;28;20044;-73
2023/05/29 05:36:06;;;;;;;15.82;3.78;;;;;;;11.76;79.61;102034.25;5002908;28;20034;-73
2023/05/29 05:38:32;;;;;;;17.00;3.72;;;;;;;11.88;78.83;102025.38;4987257;28;20049;-73
2023/05/29 05:40:58;;;;;;;26.30;3.38;;;;;;;12.05;78.86;102025.69;4983759;28;20079;-73
2023/05/29 05:43:29;;;;;;;21.27;4.28;;;;;;;12.08;77.45;102022.84;4999891;28;20127;-72
2023/05/29 05:46:17;;;;;;;22.30;3.20;;;;;;;12.24;77.71;102030.91;5017785;28;20037;-72
2023/05/29 05:48:43;;;;;;;26.92;4.60;;;;;;;12.48;76.48;102028.84;5019044;28;20034;-72
2023/05/29 05:51:10;;;;;;;11.70;2.72;;;;;;;12.54;75.79;102029.09;5001219;28;20044;-72
2023/05/29 05:53:36;;;;;;;20.67;3.33;;;;;;;12.57;75.34;102018.44;5002888;28;20175;-72
2023/05/29 05:56:02;;;;;;;20.38;3.80;;;;;;;12.80;75.41;102025.91;4996961;28;20491;-73
2023/05/29 05:58:28;;;;;;;19.80;3.38;;;;;;;13.07;74.91;102026.94;4985681;28;20044;-72
2023/05/29 06:00:57;;;;;;;17.10;3.38;;;;;;;13.13;73.32;102028.94;5006997;28;20416;-72
2023/05/29 06:03:23;;;;;;;15.52;3.38;;;;;;;13.21;72.74;102026.47;5017512;28;20046;-72
2023/05/29 06:05:54;;;;;;;21.05;4.30;;;;;;;13.42;71.92;102021.88;5002377;28;20026;-73
2023/05/29 06:08:20;;;;;;;20.35;3.92;;;;;;;13.50;70.95;102018.53;5005223;28;20029;-73
2023/05/29 06:10:45;;;;;;;15.48;2.88;;;;;;;13.40;70.94;102020.38;5014175;28;20013;-73
2023/05/29 06:13:12;;;;;;;20.58;3.08;;;;;;;13.49;70.25;102024.72;5000461;28;20123;-73
2023/05/29 06:15:46;;;;;;;20.13;3.08;;;;;;;13.58;69.94;102018.66;4986303;28;20330;-72
2023/05/29 06:18:12;;;;;;;13.20;3.00;;;;;;;13.98;69.57;102020.03;5004545;28;20094;-73
2023/05/29 06:20:38;;;;;;;20.27;4.13;;;;;;;14.08;68.47;102030.38;5019151;28;20025;-73
2023/05/29 06:23:06;;;;;;;13.93;3.45;;;;;;;14.31;67.24;102035.94;5000981;28;20069;-73
2023/05/29 06:25:34;;;;;;;20.83;3.03;;;;;;;14.46;66.85;102041.44;4986266;28;20028;-73
2023/05/29 06:28:00;;;;;;;18.55;3.72;;;;;;;14.56;66.19;102033.53;5001341;28;20072;-73
2023/05/29 06:30:26;;;;;;;14.45;3.50;;;;;;;14.71;65.77;102039.88;5018908;28;20395;-73
2023/05/29 06:32:52;;;;;;;19.67;2.90;;;;;;;14.97;65.29;102029.44;5012535;28;20488;-73
2023/05/29 06:35:22;;;;;;;18.35;2.72;;;;;;;15.06;64.86;102034.69;5001552;28;20022;-73
2023/05/29 06:37:48;;;;;;;17.42;2.80;;;;;;;15.11;64.35;102038.47;4998563;28;20025;-74
2023/05/29 06:40:15;;;;;;;23.95;2.75;;;;;;;15.17;63.01;102040.47;4997126;28;20025;-73
2023/05/29 06:42:41;;;;;;;22.48;3.40;;;;;;;15.15;63.67;102031.16;4989081;28;20487;-73
2023/05/29 06:45:13;;;;;;;30.20;7.93;;;;;;;15.01;63.48;102040.38;4995939;28;20037;-73
2023/05/29 06:47:40;;;;;;;27.48;8.65;;;;;;;15.24;63.31;102038.06;4994983;28;20568;-73
2023/05/29 06:50:07;;;;;;;23.10;3.55;;;;;;;15.53;61.70;102034.22;5003263;28;20041;-73
2023/05/29 06:52:33;;;;;;;13.88;2.92;;;;;;;15.52;63.13;102030.81;5015944;28;20677;-73
2023/05/29 06:55:19;;;;;;;11.98;2.47;;;;;;;15.99;60.76;102037.28;4992443;28;20059;-73
2023/05/29 06:57:45;;;;;;;21.23;3.47;;;;;;;16.23;60.45;102026.03;4981847;28;20149;-73
2023/05/29 07:00:12;;;;;;;19.33;3.13;;;;;;;16.42;59.04;102031.91;4994703;28;20519;-73
2023/05/29 07:02:42;;;;;;;22.65;4.10;;;;;;;16.51;58.23;102026.50;4999011;28;20087;-73
2023/05/29 07:05:08;;;;;;;18.17;5.20;;;;;;;16.84;57.72;102025.66;4997825;28;20044;-73
2023/05/29 07:07:35;;;;;;;26.40;5.07;;;;;;;16.92;55.84;102020.41;4984197;28;20116;-73
2023/05/29 07:10:01;;;;;;;18.67;4.38;;;;;;;17.16;55.88;102019.53;4996397;28;20049;-73
2023/05/29 07:12:26;;;;;;;30.50;5.38;;;;;;;17.41;56.21;102022.84;5016641;28;20037;-73
2023/05/29 07:14:52;;;;;;;22.90;4.88;;;;;;;17.46;54.30;102017.06;5003683;28;20317;-73
2023/05/29 07:17:18;;;;;;;22.17;5.07;;;;;;;17.36;54.23;102024.34;5001599;28;20029;-73
2023/05/29 07:19:43;;;;;;;23.92;4.63;;;;;;;17.21;55.29;102030.28;5017366;28;20037;-73
2023/05/29 07:22:10;;;;;;;18.33;4.30;;;;;;;17.45;54.43;102032.00;4997577;28;20029;-71
2023/05/29 07:24:36;;;;;;;23.02;4.50;;;;;;;17.51;54.56;102035.72;4999315;28;20415;-71
2023/05/29 07:27:04;;;;;;;14.35;3.30;;;;;;;17.71;53.64;102036.94;4998860;28;20815;-73
2023/05/29 07:29:31;;;;;;;15.70;2.80;;;;;;;18.06;52.77;102032.16;4998399;28;20228;-73
2023/05/29 07:31:56;;;;;;;13.60;3.80;;;;;;;18.18;52.17;102029.91;4983255;28;20045;-73
2023/05/29 07:34:23;;;;;;;18.08;3.17;;;;;;;18.13;52.96;102041.94;4997941;28;20034;-73
2023/05/29 07:37:03;;;;;;;14.57;2.53;;;;;;;18.02;52.48;102038.72;4988011;28;20037;-73
2023/05/29 07:39:32;;;;;;;16.80;3.08;;;;;;;18.36;51.76;102042.72;5004323;28;20565;-73
2023/05/29 07:42:02;;;;;;;17.17;3.85;;;;;;;18.49;51.80;102042.13;4999491;28;20025;-73
2023/05/29 07:44:27;;;;;;;11.00;2.92;;;;;;;18.62;50.99;102036.25;5016528;28;20041;-73
2023/05/29 07:46:53;;;;;;;13.13;3.28;;;;;;;18.73;51.91;102048.16;4991056;28;20140;-73
2023/05/29 07:49:42;;;;;;;15.65;3.63;;;;;;;18.85;50.24;102054.59;5008935;28;20049;-73
2023/05/29 07:52:09;;;;;;;13.68;2.40;;;;;;;18.97;49.87;102058.44;5003963;28;20412;-73
2023/05/29 07:54:34;;;;;;;12.90;2.95;;;;;;;19.19;49.17;102054.06;5001989;28;20045;-73
2023/05/29 07:57:11;;;;;;;15.40;2.90;;;;;;;18.62;50.64;102044.13;4985561;28;20048;-73
2023/05/29 07:59:42;;;;;;;11.65;3.33;;;;;;;18.54;51.31;102049.47;5015438;28;20080;-73
2023/05/29 08:02:08;;;;;;;12.00;2.35;;;;;;;18.77;50.62;102042.34;5017614;28;20033;-73
2023/05/29 08:04:46;;;;;;;12.20;3.13;;;;;;;18.99;49.61;102037.22;5019528;28;20067;-73
2023/05/29 08:07:12;;;;;;;20.60;3.45;;;;;;;18.79;50.55;102061.34;5002133;28;20029;-73
2023/05/29 08:09:37;;;;;;;14.30;2.30;;;;;;;19.28;49.92;102059.22;4999019;28;20049;-73
2023/05/29 08:12:03;;;;;;;12.27;2.40;;;;;;;19.34;49.31;102056.66;4998089;28;20480;-73
2023/05/29 08:14:28;;;;;;;11.27;3.10;;;;;;;19.01;50.52;102064.94;5001357;28;20370;-73
2023/05/29 08:16:55;;;;;;;13.98;2.63;;;;;;;19.33;49.76;102057.69;4990805;28;20041;-71
2023/05/29 08:19:20;;;;;;;12.93;3.45;;;;;;;19.03;49.66;102064.78;5023082;28;20332;-71
2023/05/29 08:21:46;;;;;;;15.77;3.28;;;;;;;19.11;50.88;102062.03;5009905;28;20119;-71
2023/05/29 08:24:11;;;;;;;10.18;3.22;;;;;;;19.22;50.52;102066.03;5019136;28;20038;-71
2023/05/29 08:26:37;;;;;;;16.60;3.10;;;;;;;19.38;49.57;102065.00;5002808;28;20416;-72
2023/05/29 08:29:02;;;;;;;12.65;2.88;;;;;;;19.25;49.20;102063.84;4990663;28;20045;-72
2023/05/29 08:31:30;;;;;;;19.27;3.08;;;;;;;19.24;49.86;102058.78;5016784;28;20346;-71
2023/05/29 08:33:56;;;;;;;12.98;2.72;;;;;;;19.74;48.28;102056.31;5023370;28;20129;-72
2023/05/29 08:36:21;;;;;;;18.10;2.60;;;;;;;19.74;48.60;102056.31;4986925;28;20119;-73
2023/05/29 08:38:50;;;;;;;11.52;2.22;;;;;;;19.77;47.54;102059.41;5022854;28;20052;-73
2023/05/29 08:41:34;;;;;;;13.38;2.97;;;;;;;19.92;48.58;102059.34;5022734;28;20025;-73
2023/05/29 08:44:04;;;;;;;19.08;2.70;;;;;;;20.12;48.98;102062.19;5019770;28;20052;-73
2023/05/29 08:46:31;;;;;;;11.43;2.33;;;;;;;20.01;49.13;102074.03;5007109;28;20037;-73
2023/05/29 08:48:58;;;;;;;12.05;3.15;;;;;;;20.02;47.92;102070.41;5019653;28;20075;-73
2023/05/29 08:51:31;;;;;;;19.20;3.58;;;;;;;19.91;48.48;102060.38;5015089;28;20036;-72
2023/05/29 08:53:57;;;;;;;10.20;2.67;;;;;;;20.23;47.91;102074.03;4993199;28;20097;-72
2023/05/29 08:56:23;;;;;;;15.05;2.85;;;;;;;20.34;48.69;102077.94;4999134;28;20038;-71
2023/05/29 08:58:50;;;;;;;14.20;2.83;;;;;;;19.83;48.54;102077.09;4999445;28;20448;-72
2023/05/29 09:01:16;;;;;;;9.30;2.35;;;;;;;20.14;48.48;102072.53;4998055;28;20124;-72
2023/05/29 09:03:42;;;;;;;21.42;3.42;;;;;;;20.06;47.78;102068.22;4999923;28;20182;-71
2023/05/29 09:06:08;;;;;;;10.07;2.38;;;;;;;20.53;47.60;102071.22;4982349;28;20041;-72
2023/05/29 09:08:34;;;;;;;13.07;2.97;;;;;;;20.48;47.31;102071.00;4982179;28;20424;-72
2023/05/29 09:11:00;;;;;;;14.70;2.40;;;;;;;20.67;46.90;102054.53;4999721;28;20037;-72
2023/05/29 09:13:28;;;;;;;15.02;2.85;;;;;;;20.66;47.04;102052.09;4981250;28;20053;-72
2023/05/29 09:16:00;;;;;;;15.85;5.05;;;;;;;20.44;48.16;102075.81;4985977;28;20038;-72
2023/05/29 09:18:31;;;;;;;10.35;2.72;;;;;;;20.12;47.97;102062.19;4986695;28;20601;-72
2023/05/29 09:20:57;;;;;;;8.45;2.67;;;;;;;20.28;47.84;102066.34;4995578;28;20061;-72
2023/05/29 09:23:25;;;;;;;11.27;2.78;;;;;;;20.18;48.32;102063.25;4986833;28;20041;-73
2023/05/29 09:25:54;;;;;;;15.93;3.13;;;;;;;20.35;48.56;102063.78;5004924;28;20117;-72
2023/05/29 09:28:28;;;;;;;13.65;3.53;;;;;;;20.06;49.28;102070.84;5016756;28;20124;-72
2023/05/29 09:30:53;;;;;;;20.35;3.20;;;;;;;20.23;48.89;102066.13;4977899;28;20036;-72
2023/05/29 09:33:19;;;;;;;17.48;2.85;;;;;;;20.33;48.33;102060.53;5002534;28;20427;-72
2023/05/29 09:35:47;;;;;;;10.85;2.38;;;;;;;20.55;47.08;102067.41;5018654;28;20038;-72
2023/05/29 09:38:15;;;;;;;13.60;2.25;;;;;;;20.46;47.54;102071.19;4999372;28;20057;-72
2023/05/29 09:40:42;;;;;;;12.80;2.85;;;;;;;20.28;47.80;102084.00;4995900;28;20033;-72
2023/05/29 09:43:16;;;;;;;12.35;2.47;;;;;;;20.50;47.10;102088.22;4973457;28;20570;-72
2023/05/29 09:45:44;;;;;;;14.55;3.13;;;;;;;20.41;47.05;102087.53;4976638;28;20129;-74
2023/05/29 09:48:17;;;;;;;9.90;2.83;;;;;;;20.45;47.97;102084.53;4990548;28;20432;-72
2023/05/29 09:50:44;;;;;;;16.80;3.25;;;;;;;20.57;47.67;102083.03;4995766;28;20081;-72
2023/05/29 09:53:21;;;;;;;18.23;2.95;;;;;;;20.55;47.64;102082.38;4990735;28;20557;-72
2023/05/29 09:55:48;;;;;;;12.68;2.95;;;;;;;20.63;47.44;102081.47;4992527;28;20033;-72
2023/05/29 09:58:15;;;;;;;14.32;2.67;;;;;;;20.33;47.73;102087.69;4994377;28;20042;-72
2023/05/29 10:00:45;;;;;;;12.18;2.60;;;;;;;20.34;47.85;102085.84;4993955;28;20420;-72
2023/05/29 10:03:14;;;;;;;9.52;2.20;;;;;;;20.59;47.81;102078.38;4997959;28;20049;-72
2023/05/29 10:05:40;;;;;;;16.65;3.13;;;;;;;20.76;48.45;102082.38;5000498;28;20030;-72
2023/05/29 10:08:11;;;;;;;14.40;3.42;;;;;;;20.85;47.57;102076.94;5013384;28;20694;-72
2023/05/29 10:10:38;;;;;;;14.35;2.85;;;;;;;20.48;47.58;102078.91;5000427;28;20500;-72
2023/05/29 10:13:06;;;;;;;14.60;3.10;;;;;;;20.35;47.93;102080.41;4996688;28;20128;-73
2023/05/29 10:15:33;;;;;;;14.50;2.55;;;;;;;20.69;46.61;102073.59;5016875;28;20403;-72
2023/05/29 10:18:04;;;;;;;15.65;3.50;;;;;;;20.83;47.17;102074.50;5017255;28;20652;-72
2023/05/29 10:20:31;;;;;;;13.65;2.67;;;;;;;20.80;47.91;102067.78;4999222;28;20319;-72
2023/05/29 10:23:01;;;;;;;16.20;2.67;;;;;;;21.11;47.52;102063.88;4984728;28;20168;-72
2023/05/29 10:25:30;;;;;;;13.32;2.55;;;;;;;21.07;46.68;102078.47;4983695;28;20499;-72
2023/05/29 10:27:57;;;;;;;14.15;2.78;;;;;;;21.18;47.01;102070.03;5002845;28;20040;-72
2023/05/29 10:30:29;;;;;;;7.68;2.53;;;;;;;21.41;45.94;102063.63;4984765;28;20421;-72
2023/05/29 10:33:36;;;;;;;14.07;2.78;;;;;;;21.11;46.34;102057.81;5000543;28;20090;-72
2023/05/29 10:36:17;;;;;;;13.23;2.78;;;;;;;21.12;46.86;102060.25;5016708;28;20037;-72
2023/05/29 10:38:47;;;;;;;14.57;3.08;;;;;;;21.12;46.15;102056.81;4995297;28;20049;-72
2023/05/29 10:41:27;;;;;;;16.85;3.05;;;;;;;21.20;46.47;102051.38;4997749;28;20041;-72
2023/05/29 10:43:57;;;;;;;19.70;3.20;;;;;;;20.73;45.85;102061.66;4996392;28;20045;-73
2023/05/29 10:46:44;;;;;;;15.57;2.85;;;;;;;21.03;47.81;102053.53;5016841;28;20458;-72
2023/05/29 10:49:17;;;;;;;18.60;3.20;;;;;;;20.89;46.63;102057.09;4998030;28;20492;-72
2023/05/29 10:51:43;;;;;;;14.10;2.58;;;;;;;21.34;47.28;102053.06;4998360;28;20504;-73
2023/05/29 10:54:09;;;;;;;11.63;2.78;;;;;;;21.48;45.87;102059.22;5012617;28;20087;-72
2023/05/29 10:56:34;;;;;;;13.43;2.90;;;;;;;21.17;46.37;102059.66;4986363;28;20484;-73
2023/05/29 10:59:03;;;;;;;10.48;2.83;;;;;;;21.02;46.16;102056.34;4996514;28;20104;-73
2023/05/29 11:01:30;;;;;;;11.02;2.40;;;;;;;20.75;47.41;102050.94;4995892;28;20613;-72
2023/05/29 11:04:24;;;;;;;15.45;3.05;;;;;;;20.79;48.77;102060.91;4996151;28;20060;-72
2023/05/29 11:06:50;;;;;;;10.55;2.78;;;;;;;21.09;46.78;102058.00;4991758;28;20607;-72
2023/05/29 11:09:35;;;;;;;10.75;2.17;;;;;;;21.47;46.00;102049.66;5012499;28;20060;-72
2023/05/29 11:12:25;;;;;;;10.73;3.13;;;;;;;21.47;45.51;102047.03;4998872;28;20136;-72
2023/05/29 11:15:09;;;;;;;16.65;3.05;;;;;;;21.15;45.27;102045.84;5013279;28;20069;-72
2023/05/29 11:17:38;;;;;;;12.15;2.42;;;;;;;20.83;47.20;102039.41;4992655;28;20072;-72
2023/05/29 11:20:28;;;;;;;14.07;3.13;;;;;;;21.19;46.21;102028.63;5004512;28;20106;-74
2023/05/29 11:22:53;;;;;;;13.30;2.45;;;;;;;21.34;46.52;102033.75;5017429;28;20165;-74
2023/05/29 11:25:20;;;;;;;12.73;2.42;;;;;;;21.31;45.98;102024.44;4999348;28;20098;-74